Ocean Beaut — WDD7485 — position and weather

sailwx.info

Track history (hours):
 
Tides and Currents Weather Stations Pressure Air Temp Water Temp Dewpoint Dewpoint Depression Visibility Wind Speed Wind Dir Waves Ship Positions

Ocean Beaut

Owner: John Moreland Fishing Inc., Astoria, OR. More information available from US FCC via Universal Licensing System.

Last reported at 2017-Feb-26 21:31 UTC. Time now 2017-Feb-26 21:55 UTC.
Position N 46°12' W 123°48'.

Length 20 m.

Type: Fishing. MMSI: 367187080.

Date/timePositionNaut miles runAvg speedWind from/ knotsBaromVisibWave heightAir tempDewpointWater temp
2017-Feb-26 21:31N 46°12' W 123°48'0 0.0
2017-Feb-26 20:31N 46°12' W 123°48'0 0.0
2017-Feb-26 19:31N 46°12' W 123°48'0 0.0
2017-Feb-26 18:31N 46°12' W 123°48'0 0.0
2017-Feb-26 17:31N 46°12' W 123°48'0 0.0
2017-Feb-26 16:31N 46°12' W 123°48'0 0.0
2017-Feb-26 15:31N 46°12' W 123°48'0 0.0
2017-Feb-26 14:31N 46°12' W 123°48'0 0.0
2017-Feb-26 13:31N 46°12' W 123°48'0 0.0
2017-Feb-26 12:31N 46°12' W 123°48'0 0.0
2017-Feb-26 11:31N 46°12' W 123°48'0 0.0
2017-Feb-26 10:31N 46°12' W 123°48'0 0.0
2017-Feb-26 09:31N 46°12' W 123°48'0 0.0
2017-Feb-26 08:31N 46°12' W 123°48'0 0.0
2017-Feb-26 07:31N 46°12' W 123°48'0 0.0
2017-Feb-26 06:31N 46°12' W 123°48'0 0.0
2017-Feb-26 05:31N 46°12' W 123°48'0 0.0
2017-Feb-26 04:31N 46°12' W 123°48'0 0.0
2017-Feb-26 03:31N 46°12' W 123°48'0 0.0
2017-Feb-26 02:28N 46°12' W 123°48'0 0.0
2017-Feb-26 01:31N 46°12' W 123°48'0 0.0
2017-Feb-26 00:31N 46°12' W 123°48'0 0.0
2017-Feb-25 23:31N 46°12' W 123°48'0 0.0
2017-Feb-25 22:28N 46°12' W 123°48'0 0.0
2017-Feb-25 21:31N 46°12' W 123°48'0 0.0
2017-Feb-25 20:31N 46°12' W 123°48'0 0.0
2017-Feb-25 19:31N 46°12' W 123°48'0 0.0
2017-Feb-25 18:31N 46°12' W 123°48'0 0.0
2017-Feb-25 17:31N 46°12' W 123°48'0 0.0
2017-Feb-25 16:28N 46°12' W 123°48'0 0.0
2017-Feb-25 15:31N 46°12' W 123°48'0 0.0
2017-Feb-25 14:31N 46°12' W 123°48'0 0.0
2017-Feb-25 13:31N 46°12' W 123°48'0 0.0
2017-Feb-25 12:31N 46°12' W 123°48'0 0.0
2017-Feb-25 11:31N 46°12' W 123°48'0 0.0
2017-Feb-25 10:31N 46°12' W 123°48'0 0.0
2017-Feb-25 09:31N 46°12' W 123°48'0 0.0
2017-Feb-25 08:31N 46°12' W 123°48'0 0.0
2017-Feb-25 07:31N 46°12' W 123°48'0 0.0
2017-Feb-25 06:31N 46°12' W 123°48'0 0.0
2017-Feb-25 05:31N 46°12' W 123°48'0 0.0
2017-Feb-25 04:31N 46°12' W 123°48'0 0.0
2017-Feb-25 03:31N 46°12' W 123°48'0 0.0
2017-Feb-25 02:31N 46°12' W 123°48'0 0.0
2017-Feb-25 01:31N 46°12' W 123°48'0 0.0
2017-Feb-25 00:31N 46°12' W 123°48'0 0.0
2017-Feb-24 23:31N 46°12' W 123°48'0 0.0
2017-Feb-24 22:31N 46°12' W 123°48'0 0.0
2017-Feb-24 21:31N 46°12' W 123°48'0 0.0
2017-Feb-24 20:31N 46°12' W 123°48'0 0.0
2017-Feb-24 19:31N 46°12' W 123°48'2 2.5
2017-Feb-24 18:33N 46°11' W 123°51'0 0.0
2017-Feb-24 17:33N 46°11' W 123°51'0 0.0
2017-Feb-24 16:33N 46°11' W 123°51'0 0.0
2017-Feb-24 15:33N 46°11' W 123°51'0 0.0
2017-Feb-24 14:33N 46°11' W 123°51'0 0.0
2017-Feb-24 13:33N 46°11' W 123°51'0 0.0
2017-Feb-24 12:33N 46°11' W 123°51'0 0.0
2017-Feb-24 11:33N 46°11' W 123°51'0 0.0
2017-Feb-24 10:33N 46°11' W 123°51'0 0.0
2017-Feb-24 09:33N 46°11' W 123°51'0 0.0
2017-Feb-24 08:33N 46°11' W 123°51'0 0.0
2017-Feb-24 07:33N 46°11' W 123°51'0 0.1
2017-Feb-24 06:33N 46°11' W 123°52'9 8.5
2017-Feb-24 05:33N 46°15' W 124°03'7 7.3
2017-Feb-24 04:33N 46°11' W 124°12'6 6.3
2017-Feb-24 03:33N 46°07' W 124°19'6 6.4
2017-Feb-24 02:33N 46°03' W 124°26'6 6.2
2017-Feb-24 01:33N 45°59' W 124°33'6 6.4
2017-Feb-24 00:33N 45°55' W 124°39'6 5.9
2017-Feb-23 23:33N 45°50' W 124°45'2 1.5
2017-Feb-23 22:33N 45°49' W 124°46'1 1.4
2017-Feb-23 21:33N 45°48' W 124°46'2 2.2
2017-Feb-23 20:33N 45°45' W 124°46'2 2.4
2017-Feb-23 19:31N 45°43' W 124°46'2 2.3
2017-Feb-23 18:33N 45°45' W 124°47'2 1.5
2017-Feb-23 17:25N 45°43' W 124°47'2 2.2
2017-Feb-23 16:33N 45°42' W 124°45'2 2.1
2017-Feb-23 15:33N 45°40' W 124°46'2 0.3
2017-Feb-23 09:33N 45°41' W 124°44'0 0.5
2017-Feb-23 08:31N 45°41' W 124°44'0 0.2
2017-Feb-23 07:07N 45°41' W 124°43'0 0.1
2017-Feb-23 05:32N 45°41' W 124°43'0 0.0
2017-Feb-23 02:23N 45°41' W 124°43'2 2.5
2017-Feb-23 01:29N 45°43' W 124°45'2 2.5
2017-Feb-23 00:32N 45°45' W 124°47'2 1.5
2017-Feb-22 23:31N 45°43' W 124°47'2 2.3
2017-Feb-22 22:26N 45°41' W 124°45'2 2.2
2017-Feb-22 21:32N 45°39' W 124°46'2 0.3
2017-Feb-22 14:30N 45°41' W 124°45'2 2.0
2017-Feb-22 13:32N 45°43' W 124°46'2 2.1
2017-Feb-22 12:33N 45°45' W 124°47'2 2.0
2017-Feb-22 11:27N 45°47' W 124°46'3 3.0
2017-Feb-22 10:34N 45°50' W 124°46'6 6.3
2017-Feb-22 09:33N 45°56' W 124°46'1 1.5
2017-Feb-22 08:33N 45°58' W 124°46'2 2.2
2017-Feb-22 07:33N 45°60' W 124°48'2 2.1
2017-Feb-22 06:33N 46°01' W 124°50'2 1.5
2017-Feb-22 05:31N 46°03' W 124°50'2 2.1
2017-Feb-22 04:33N 46°05' W 124°50'5 5.1
2017-Feb-22 03:33N 46°10' W 124°51'8 7.7
2017-Feb-22 02:33N 46°18' W 124°51'8 7.8
2017-Feb-22 01:33N 46°25' W 124°52'8 7.6
2017-Feb-22 00:33N 46°33' W 124°54'13 3.9
2017-Feb-21 21:10N 46°46' W 124°54'1 2.1
2017-Feb-21 20:28N 46°44' W 124°54'3 2.1
2017-Feb-21 19:14N 46°42' W 124°52'1 2.1
2017-Feb-21 18:32N 46°41' W 124°51'3 2.1
2017-Feb-21 17:14N 46°38' W 124°50'1 2.1
2017-Feb-21 16:33N 46°37' W 124°50'4 3.0
2017-Feb-21 15:19N 46°34' W 124°47'5 5.7
2017-Feb-21 14:32N 46°33' W 124°40'2 1.6
2017-Feb-21 13:33N 46°34' W 124°39'2 1.9
2017-Feb-21 12:33N 46°33' W 124°41'2 2.0
2017-Feb-21 11:33N 46°31' W 124°41'2 2.4
2017-Feb-21 10:33N 46°29' W 124°40'0 0.4
2017-Feb-21 09:33N 46°29' W 124°41'0 0.4
2017-Feb-21 08:29N 46°29' W 124°40'7 7.5
2017-Feb-21 07:33N 46°24' W 124°32'8 7.8
2017-Feb-21 06:33N 46°19' W 124°24'9 8.7
2017-Feb-21 05:33N 46°13' W 124°15'7 7.3
2017-Feb-21 04:33N 46°15' W 124°04'8 8.0
2017-Feb-21 03:33N 46°11' W 123°54'2 2.0
2017-Feb-21 02:32N 46°11' W 123°52'1 0.6
2017-Feb-21 01:33N 46°12' W 123°51'2 1.9
2017-Feb-21 00:32N 46°12' W 123°48'0 0.0
2017-Feb-20 23:32N 46°12' W 123°48'0 0.0
2017-Feb-20 22:32N 46°12' W 123°48'0 0.0
2017-Feb-20 21:32N 46°12' W 123°48'0 0.0
2017-Feb-20 20:32N 46°12' W 123°48'0 0.0
2017-Feb-20 19:32N 46°12' W 123°48'0 0.1
2017-Feb-20 18:33N 46°12' W 123°48'1 0.8
2017-Feb-20 17:33N 46°12' W 123°49'1 0.6
2017-Feb-20 16:32N 46°12' W 123°48'0 0.0
2017-Feb-20 15:32N 46°12' W 123°48'0 0.0
2017-Feb-20 14:32N 46°12' W 123°48'0 0.0
2017-Feb-20 13:32N 46°12' W 123°48'0 0.0
2017-Feb-20 12:29N 46°12' W 123°48'0 0.0
2017-Feb-20 11:32N 46°12' W 123°48'0 0.0
2017-Feb-20 10:32N 46°12' W 123°48'0 0.0
2017-Feb-20 09:32N 46°12' W 123°48'0 0.0
2017-Feb-20 08:32N 46°12' W 123°48'0 0.0
2017-Feb-20 07:32N 46°12' W 123°48'0 0.0
2017-Feb-20 06:32N 46°12' W 123°48'0 0.0
2017-Feb-20 05:32N 46°12' W 123°48'0 0.0
2017-Feb-20 04:32N 46°12' W 123°48'0 0.0
2017-Feb-20 03:32N 46°12' W 123°48'0 0.0
2017-Feb-20 02:32N 46°12' W 123°48'0 0.0
2017-Feb-20 01:32N 46°12' W 123°48'0 0.0
2017-Feb-20 00:29N 46°12' W 123°48'0 0.0
2017-Feb-19 23:32N 46°12' W 123°48'0 0.0
2017-Feb-19 22:29N 46°12' W 123°48'0 0.0
2017-Feb-19 21:32N 46°12' W 123°48'0 0.0
2017-Feb-19 20:32N 46°12' W 123°48'0 0.0
2017-Feb-19 19:32N 46°12' W 123°48'0 0.0
2017-Feb-19 18:29N 46°12' W 123°48'0 0.0
2017-Feb-19 17:32N 46°12' W 123°48'0 0.0
2017-Feb-19 16:32N 46°12' W 123°48'0 0.0
2017-Feb-19 15:32N 46°12' W 123°48'0 0.0
2017-Feb-19 14:32N 46°12' W 123°48'0 0.0
2017-Feb-19 13:32N 46°12' W 123°48'0 0.0
2017-Feb-19 12:32N 46°12' W 123°48'0 0.0
2017-Feb-19 11:32N 46°12' W 123°48'0 0.0
2017-Feb-19 10:29N 46°12' W 123°48'0 0.0
2017-Feb-19 09:23N 46°12' W 123°48'0 0.0
2017-Feb-19 08:32N 46°12' W 123°48'0 0.0
2017-Feb-19 07:32N 46°12' W 123°48'0 0.0
2017-Feb-19 06:32N 46°12' W 123°48'0 0.0
2017-Feb-19 05:32N 46°12' W 123°48'0 0.0
2017-Feb-19 04:29N 46°12' W 123°48'0 0.0
2017-Feb-19 03:32N 46°12' W 123°48'0 0.0
2017-Feb-19 02:32N 46°12' W 123°48'0 0.0
2017-Feb-19 01:32N 46°12' W 123°48'0 0.0
2017-Feb-19 00:32N 46°12' W 123°48'0 0.0
2017-Feb-18 23:29N 46°12' W 123°48'0 0.0
2017-Feb-18 22:32N 46°12' W 123°48'0 0.0
2017-Feb-18 21:32N 46°12' W 123°48'0 0.0
2017-Feb-18 20:32N 46°12' W 123°48'0 0.0
2017-Feb-18 19:29N 46°12' W 123°48'0 0.0
2017-Feb-18 18:32N 46°12' W 123°48'0 0.0
2017-Feb-18 17:32N 46°12' W 123°48'0 0.0
2017-Feb-18 16:14N 46°12' W 123°48'0 0.0
2017-Feb-18 15:32N 46°12' W 123°48'0 0.0
2017-Feb-18 14:29N 46°12' W 123°48'0 0.0
2017-Feb-18 13:32N 46°12' W 123°48'0 0.0
2017-Feb-18 12:32N 46°12' W 123°48'0 0.0
2017-Feb-18 11:32N 46°12' W 123°48'0 0.0
2017-Feb-18 10:32N 46°12' W 123°48'0 0.0
2017-Feb-18 09:32N 46°12' W 123°48'0 0.0
2017-Feb-18 08:32N 46°12' W 123°48'0 0.0
2017-Feb-18 07:32N 46°12' W 123°48'0 0.0
2017-Feb-18 06:32N 46°12' W 123°48'0 0.0
2017-Feb-18 05:32N 46°12' W 123°48'0 0.0
2017-Feb-18 04:32N 46°12' W 123°48'0 0.0
2017-Feb-18 03:32N 46°12' W 123°48'0 0.0
2017-Feb-18 02:32N 46°12' W 123°48'0 0.0
2017-Feb-18 01:32N 46°12' W 123°48'0 0.0
2017-Feb-18 00:32N 46°12' W 123°48'0 0.0
2017-Feb-17 23:32N 46°12' W 123°48'0 0.0
2017-Feb-17 22:32N 46°12' W 123°48'0 0.0
2017-Feb-17 21:32N 46°12' W 123°48'0 0.0
2017-Feb-17 20:29N 46°12' W 123°48'0 0.0
2017-Feb-17 19:33N 46°12' W 123°48'0 0.0
2017-Feb-17 18:32N 46°12' W 123°48'0 0.0
2017-Feb-17 17:32N 46°12' W 123°48'0 0.0
2017-Feb-17 16:32N 46°12' W 123°48'0 0.0
2017-Feb-17 15:32N 46°12' W 123°48'0 0.0
2017-Feb-17 14:32N 46°12' W 123°48'0 0.0
2017-Feb-17 13:32N 46°12' W 123°48'0 0.0
2017-Feb-17 12:32N 46°12' W 123°48'0 0.0
2017-Feb-17 11:33N 46°12' W 123°48'0 0.0
2017-Feb-17 10:32N 46°12' W 123°48'0 0.0
2017-Feb-17 09:33N 46°12' W 123°48'0 0.0
2017-Feb-17 08:30N 46°12' W 123°48'0 0.0
2017-Feb-17 07:33N 46°12' W 123°48'0 0.0
2017-Feb-17 06:33N 46°12' W 123°48'0 0.0
2017-Feb-17 05:33N 46°12' W 123°48'0 0.0
2017-Feb-17 04:33N 46°12' W 123°48'0 0.0
2017-Feb-17 03:33N 46°12' W 123°48'0 0.0
2017-Feb-17 02:33N 46°12' W 123°48'0 0.0
2017-Feb-17 01:33N 46°12' W 123°48'0 0.0
2017-Feb-17 00:33N 46°12' W 123°48'0 0.0
2017-Feb-16 23:30N 46°12' W 123°48'0 0.0
2017-Feb-16 22:30N 46°12' W 123°48'0 0.0
2017-Feb-16 21:33N 46°12' W 123°48'  
Track history (hours):
 
Tides and Currents Weather Stations Pressure Air Temp Water Temp Dewpoint Dewpoint Depression Visibility Wind Speed Wind Dir Waves Ship Positions

Ocean Beaut

Owner: John Moreland Fishing Inc., Astoria, OR. More information available from US FCC via Universal Licensing System.

Last reported at 2017-Feb-26 21:31 UTC. Time now 2017-Feb-26 21:55 UTC.
Position N 46°12' W 123°48'.

Length 20 m.

Type: Fishing. MMSI: 367187080.

Date/timePositionNaut miles runAvg speedWind from/ knotsBaromVisibWave heightAir tempDewpointWater temp
2017-Feb-26 21:31N 46°12' W 123°48'0 0.0
2017-Feb-26 20:31N 46°12' W 123°48'0 0.0
2017-Feb-26 19:31N 46°12' W 123°48'0 0.0
2017-Feb-26 18:31N 46°12' W 123°48'0 0.0
2017-Feb-26 17:31N 46°12' W 123°48'0 0.0
2017-Feb-26 16:31N 46°12' W 123°48'0 0.0
2017-Feb-26 15:31N 46°12' W 123°48'0 0.0
2017-Feb-26 14:31N 46°12' W 123°48'0 0.0
2017-Feb-26 13:31N 46°12' W 123°48'0 0.0
2017-Feb-26 12:31N 46°12' W 123°48'0 0.0
2017-Feb-26 11:31N 46°12' W 123°48'0 0.0
2017-Feb-26 10:31N 46°12' W 123°48'0 0.0
2017-Feb-26 09:31N 46°12' W 123°48'0 0.0
2017-Feb-26 08:31N 46°12' W 123°48'0 0.0
2017-Feb-26 07:31N 46°12' W 123°48'0 0.0
2017-Feb-26 06:31N 46°12' W 123°48'0 0.0
2017-Feb-26 05:31N 46°12' W 123°48'0 0.0
2017-Feb-26 04:31N 46°12' W 123°48'0 0.0
2017-Feb-26 03:31N 46°12' W 123°48'0 0.0
2017-Feb-26 02:28N 46°12' W 123°48'0 0.0
2017-Feb-26 01:31N 46°12' W 123°48'0 0.0
2017-Feb-26 00:31N 46°12' W 123°48'0 0.0
2017-Feb-25 23:31N 46°12' W 123°48'0 0.0
2017-Feb-25 22:28N 46°12' W 123°48'0 0.0
2017-Feb-25 21:31N 46°12' W 123°48'0 0.0
2017-Feb-25 20:31N 46°12' W 123°48'0 0.0
2017-Feb-25 19:31N 46°12' W 123°48'0 0.0
2017-Feb-25 18:31N 46°12' W 123°48'0 0.0
2017-Feb-25 17:31N 46°12' W 123°48'0 0.0
2017-Feb-25 16:28N 46°12' W 123°48'0 0.0
2017-Feb-25 15:31N 46°12' W 123°48'0 0.0
2017-Feb-25 14:31N 46°12' W 123°48'0 0.0
2017-Feb-25 13:31N 46°12' W 123°48'0 0.0
2017-Feb-25 12:31N 46°12' W 123°48'0 0.0
2017-Feb-25 11:31N 46°12' W 123°48'0 0.0
2017-Feb-25 10:31N 46°12' W 123°48'0 0.0
2017-Feb-25 09:31N 46°12' W 123°48'0 0.0
2017-Feb-25 08:31N 46°12' W 123°48'0 0.0
2017-Feb-25 07:31N 46°12' W 123°48'0 0.0
2017-Feb-25 06:31N 46°12' W 123°48'0 0.0
2017-Feb-25 05:31N 46°12' W 123°48'0 0.0
2017-Feb-25 04:31N 46°12' W 123°48'0 0.0
2017-Feb-25 03:31N 46°12' W 123°48'0 0.0
2017-Feb-25 02:31N 46°12' W 123°48'0 0.0
2017-Feb-25 01:31N 46°12' W 123°48'0 0.0
2017-Feb-25 00:31N 46°12' W 123°48'0 0.0
2017-Feb-24 23:31N 46°12' W 123°48'0 0.0
2017-Feb-24 22:31N 46°12' W 123°48'0 0.0
2017-Feb-24 21:31N 46°12' W 123°48'0 0.0
2017-Feb-24 20:31N 46°12' W 123°48'0 0.0
2017-Feb-24 19:31N 46°12' W 123°48'2 2.5
2017-Feb-24 18:33N 46°11' W 123°51'0 0.0
2017-Feb-24 17:33N 46°11' W 123°51'0 0.0
2017-Feb-24 16:33N 46°11' W 123°51'0 0.0
2017-Feb-24 15:33N 46°11' W 123°51'0 0.0
2017-Feb-24 14:33N 46°11' W 123°51'0 0.0
2017-Feb-24 13:33N 46°11' W 123°51'0 0.0
2017-Feb-24 12:33N 46°11' W 123°51'0 0.0
2017-Feb-24 11:33N 46°11' W 123°51'0 0.0
2017-Feb-24 10:33N 46°11' W 123°51'0 0.0
2017-Feb-24 09:33N 46°11' W 123°51'0 0.0
2017-Feb-24 08:33N 46°11' W 123°51'0 0.0
2017-Feb-24 07:33N 46°11' W 123°51'0 0.1
2017-Feb-24 06:33N 46°11' W 123°52'9 8.5
2017-Feb-24 05:33N 46°15' W 124°03'7 7.3
2017-Feb-24 04:33N 46°11' W 124°12'6 6.3
2017-Feb-24 03:33N 46°07' W 124°19'6 6.4
2017-Feb-24 02:33N 46°03' W 124°26'6 6.2
2017-Feb-24 01:33N 45°59' W 124°33'6 6.4
2017-Feb-24 00:33N 45°55' W 124°39'6 5.9
2017-Feb-23 23:33N 45°50' W 124°45'2 1.5
2017-Feb-23 22:33N 45°49' W 124°46'1 1.4
2017-Feb-23 21:33N 45°48' W 124°46'2 2.2
2017-Feb-23 20:33N 45°45' W 124°46'2 2.4
2017-Feb-23 19:31N 45°43' W 124°46'2 2.3
2017-Feb-23 18:33N 45°45' W 124°47'2 1.5
2017-Feb-23 17:25N 45°43' W 124°47'2 2.2
2017-Feb-23 16:33N 45°42' W 124°45'2 2.1
2017-Feb-23 15:33N 45°40' W 124°46'2 0.3
2017-Feb-23 09:33N 45°41' W 124°44'0 0.5
2017-Feb-23 08:31N 45°41' W 124°44'0 0.2
2017-Feb-23 07:07N 45°41' W 124°43'0 0.1
2017-Feb-23 05:32N 45°41' W 124°43'0 0.0
2017-Feb-23 02:23N 45°41' W 124°43'2 2.5
2017-Feb-23 01:29N 45°43' W 124°45'2 2.5
2017-Feb-23 00:32N 45°45' W 124°47'2 1.5
2017-Feb-22 23:31N 45°43' W 124°47'2 2.3
2017-Feb-22 22:26N 45°41' W 124°45'2 2.2
2017-Feb-22 21:32N 45°39' W 124°46'2 0.3
2017-Feb-22 14:30N 45°41' W 124°45'2 2.0
2017-Feb-22 13:32N 45°43' W 124°46'2 2.1
2017-Feb-22 12:33N 45°45' W 124°47'2 2.0
2017-Feb-22 11:27N 45°47' W 124°46'3 3.0
2017-Feb-22 10:34N 45°50' W 124°46'6 6.3
2017-Feb-22 09:33N 45°56' W 124°46'1 1.5
2017-Feb-22 08:33N 45°58' W 124°46'2 2.2
2017-Feb-22 07:33N 45°60' W 124°48'2 2.1
2017-Feb-22 06:33N 46°01' W 124°50'2 1.5
2017-Feb-22 05:31N 46°03' W 124°50'2 2.1
2017-Feb-22 04:33N 46°05' W 124°50'5 5.1
2017-Feb-22 03:33N 46°10' W 124°51'8 7.7
2017-Feb-22 02:33N 46°18' W 124°51'8 7.8
2017-Feb-22 01:33N 46°25' W 124°52'8 7.6
2017-Feb-22 00:33N 46°33' W 124°54'13 3.9
2017-Feb-21 21:10N 46°46' W 124°54'1 2.1
2017-Feb-21 20:28N 46°44' W 124°54'3 2.1
2017-Feb-21 19:14N 46°42' W 124°52'1 2.1
2017-Feb-21 18:32N 46°41' W 124°51'3 2.1
2017-Feb-21 17:14N 46°38' W 124°50'1 2.1
2017-Feb-21 16:33N 46°37' W 124°50'4 3.0
2017-Feb-21 15:19N 46°34' W 124°47'5 5.7
2017-Feb-21 14:32N 46°33' W 124°40'2 1.6
2017-Feb-21 13:33N 46°34' W 124°39'2 1.9
2017-Feb-21 12:33N 46°33' W 124°41'2 2.0
2017-Feb-21 11:33N 46°31' W 124°41'2 2.4
2017-Feb-21 10:33N 46°29' W 124°40'0 0.4
2017-Feb-21 09:33N 46°29' W 124°41'0 0.4
2017-Feb-21 08:29N 46°29' W 124°40'7 7.5
2017-Feb-21 07:33N 46°24' W 124°32'8 7.8
2017-Feb-21 06:33N 46°19' W 124°24'9 8.7
2017-Feb-21 05:33N 46°13' W 124°15'7 7.3
2017-Feb-21 04:33N 46°15' W 124°04'8 8.0
2017-Feb-21 03:33N 46°11' W 123°54'2 2.0
2017-Feb-21 02:32N 46°11' W 123°52'1 0.6
2017-Feb-21 01:33N 46°12' W 123°51'2 1.9
2017-Feb-21 00:32N 46°12' W 123°48'0 0.0
2017-Feb-20 23:32N 46°12' W 123°48'0 0.0
2017-Feb-20 22:32N 46°12' W 123°48'0 0.0
2017-Feb-20 21:32N 46°12' W 123°48'0 0.0
2017-Feb-20 20:32N 46°12' W 123°48'0 0.0
2017-Feb-20 19:32N 46°12' W 123°48'0 0.1
2017-Feb-20 18:33N 46°12' W 123°48'1 0.8
2017-Feb-20 17:33N 46°12' W 123°49'1 0.6
2017-Feb-20 16:32N 46°12' W 123°48'0 0.0
2017-Feb-20 15:32N 46°12' W 123°48'0 0.0
2017-Feb-20 14:32N 46°12' W 123°48'0 0.0
2017-Feb-20 13:32N 46°12' W 123°48'0 0.0
2017-Feb-20 12:29N 46°12' W 123°48'0 0.0
2017-Feb-20 11:32N 46°12' W 123°48'0 0.0
2017-Feb-20 10:32N 46°12' W 123°48'0 0.0
2017-Feb-20 09:32N 46°12' W 123°48'0 0.0
2017-Feb-20 08:32N 46°12' W 123°48'0 0.0
2017-Feb-20 07:32N 46°12' W 123°48'0 0.0
2017-Feb-20 06:32N 46°12' W 123°48'0 0.0
2017-Feb-20 05:32N 46°12' W 123°48'0 0.0
2017-Feb-20 04:32N 46°12' W 123°48'0 0.0
2017-Feb-20 03:32N 46°12' W 123°48'0 0.0
2017-Feb-20 02:32N 46°12' W 123°48'0 0.0
2017-Feb-20 01:32N 46°12' W 123°48'0 0.0
2017-Feb-20 00:29N 46°12' W 123°48'0 0.0
2017-Feb-19 23:32N 46°12' W 123°48'0 0.0
2017-Feb-19 22:29N 46°12' W 123°48'0 0.0
2017-Feb-19 21:32N 46°12' W 123°48'0 0.0
2017-Feb-19 20:32N 46°12' W 123°48'0 0.0
2017-Feb-19 19:32N 46°12' W 123°48'0 0.0
2017-Feb-19 18:29N 46°12' W 123°48'0 0.0
2017-Feb-19 17:32N 46°12' W 123°48'0 0.0
2017-Feb-19 16:32N 46°12' W 123°48'0 0.0
2017-Feb-19 15:32N 46°12' W 123°48'0 0.0
2017-Feb-19 14:32N 46°12' W 123°48'0 0.0
2017-Feb-19 13:32N 46°12' W 123°48'0 0.0
2017-Feb-19 12:32N 46°12' W 123°48'0 0.0
2017-Feb-19 11:32N 46°12' W 123°48'0 0.0
2017-Feb-19 10:29N 46°12' W 123°48'0 0.0
2017-Feb-19 09:23N 46°12' W 123°48'0 0.0
2017-Feb-19 08:32N 46°12' W 123°48'0 0.0
2017-Feb-19 07:32N 46°12' W 123°48'0 0.0
2017-Feb-19 06:32N 46°12' W 123°48'0 0.0
2017-Feb-19 05:32N 46°12' W 123°48'0 0.0
2017-Feb-19 04:29N 46°12' W 123°48'0 0.0
2017-Feb-19 03:32N 46°12' W 123°48'0 0.0
2017-Feb-19 02:32N 46°12' W 123°48'0 0.0
2017-Feb-19 01:32N 46°12' W 123°48'0 0.0
2017-Feb-19 00:32N 46°12' W 123°48'0 0.0
2017-Feb-18 23:29N 46°12' W 123°48'0 0.0
2017-Feb-18 22:32N 46°12' W 123°48'0 0.0
2017-Feb-18 21:32N 46°12' W 123°48'0 0.0
2017-Feb-18 20:32N 46°12' W 123°48'0 0.0
2017-Feb-18 19:29N 46°12' W 123°48'0 0.0
2017-Feb-18 18:32N 46°12' W 123°48'0 0.0
2017-Feb-18 17:32N 46°12' W 123°48'0 0.0
2017-Feb-18 16:14N 46°12' W 123°48'0 0.0
2017-Feb-18 15:32N 46°12' W 123°48'0 0.0
2017-Feb-18 14:29N 46°12' W 123°48'0 0.0
2017-Feb-18 13:32N 46°12' W 123°48'0 0.0
2017-Feb-18 12:32N 46°12' W 123°48'0 0.0
2017-Feb-18 11:32N 46°12' W 123°48'0 0.0
2017-Feb-18 10:32N 46°12' W 123°48'0 0.0
2017-Feb-18 09:32N 46°12' W 123°48'0 0.0
2017-Feb-18 08:32N 46°12' W 123°48'0 0.0
2017-Feb-18 07:32N 46°12' W 123°48'0 0.0
2017-Feb-18 06:32N 46°12' W 123°48'0 0.0
2017-Feb-18 05:32N 46°12' W 123°48'0 0.0
2017-Feb-18 04:32N 46°12' W 123°48'0 0.0
2017-Feb-18 03:32N 46°12' W 123°48'0 0.0
2017-Feb-18 02:32N 46°12' W 123°48'0 0.0
2017-Feb-18 01:32N 46°12' W 123°48'0 0.0
2017-Feb-18 00:32N 46°12' W 123°48'0 0.0
2017-Feb-17 23:32N 46°12' W 123°48'0 0.0
2017-Feb-17 22:32N 46°12' W 123°48'0 0.0
2017-Feb-17 21:32N 46°12' W 123°48'0 0.0
2017-Feb-17 20:29N 46°12' W 123°48'0 0.0
2017-Feb-17 19:33N 46°12' W 123°48'0 0.0
2017-Feb-17 18:32N 46°12' W 123°48'0 0.0
2017-Feb-17 17:32N 46°12' W 123°48'0 0.0
2017-Feb-17 16:32N 46°12' W 123°48'0 0.0
2017-Feb-17 15:32N 46°12' W 123°48'0 0.0
2017-Feb-17 14:32N 46°12' W 123°48'0 0.0
2017-Feb-17 13:32N 46°12' W 123°48'0 0.0
2017-Feb-17 12:32N 46°12' W 123°48'0 0.0
2017-Feb-17 11:33N 46°12' W 123°48'0 0.0
2017-Feb-17 10:32N 46°12' W 123°48'0 0.0
2017-Feb-17 09:33N 46°12' W 123°48'0 0.0
2017-Feb-17 08:30N 46°12' W 123°48'0 0.0
2017-Feb-17 07:33N 46°12' W 123°48'0 0.0
2017-Feb-17 06:33N 46°12' W 123°48'0 0.0
2017-Feb-17 05:33N 46°12' W 123°48'0 0.0
2017-Feb-17 04:33N 46°12' W 123°48'0 0.0
2017-Feb-17 03:33N 46°12' W 123°48'0 0.0
2017-Feb-17 02:33N 46°12' W 123°48'0 0.0
2017-Feb-17 01:33N 46°12' W 123°48'0 0.0
2017-Feb-17 00:33N 46°12' W 123°48'0 0.0
2017-Feb-16 23:30N 46°12' W 123°48'0 0.0
2017-Feb-16 22:30N 46°12' W 123°48'0 0.0
2017-Feb-16 21:33N 46°12' W 123°48'  

Dump ship's entire track history